Lowland, North Carolina
Current Conditions -  °F | °C
As of 3:56 PM on Thursday 23 Oct 2014 (Local Time) from KNBT Reporting Station
Clear Clear  
Wind Chill: 70°   Ceiling: Unl
Heat Index: 70°   Visibility: 8mi
Dew Point: 46°   Wind: 15mph
Humidity: 42%   Direction: 290°WNW
Pressure: 29.87"   Gusts: 21mph
Location:  35.3°N, 76.56°W
Report Text: KNBT 231956Z AUTO 29013G18KT 8SM CLR 21/08 A2987 RMK AO2 SLP120 T02110078 PNO
Loading
Personal Weather Stations






























Interactive Weather Map
Tropical Storm Tracking
New forecast layout! Learn more

10-Day Weather Forecast

Advertisements
Track Severe Weather on mobile